createdAt,value
2018-06-15T00:00:34.214Z,84.50
2018-06-15T00:03:05.081Z,84.70
2018-06-15T00:05:35.639Z,84.90
2018-06-15T00:10:35.386Z,84.80
2018-06-15T00:13:05.379Z,85.30
2018-06-15T00:15:35.447Z,85.30
2018-06-15T00:18:05.439Z,85.90
2018-06-15T00:28:04.251Z,85.60
2018-06-15T00:30:34.306Z,85.60
2018-06-15T00:33:04.329Z,86.00
2018-06-15T00:35:34.341Z,86.50
2018-06-15T00:38:04.336Z,85.60
2018-06-15T00:40:34.406Z,85.40
2018-06-15T00:43:04.383Z,85.40
2018-06-15T00:45:34.461Z,85.70
2018-06-15T00:48:04.530Z,85.60
2018-06-15T00:50:34.572Z,85.80
2018-06-15T00:55:34.473Z,86.20
2018-06-15T00:58:04.483Z,85.90
2018-06-15T01:00:34.522Z,85.80
2018-06-15T01:03:04.550Z,85.90
2018-06-15T01:05:34.591Z,86.30
2018-06-15T01:10:34.231Z,86.20
2018-06-15T01:13:04.265Z,86.00
2018-06-15T01:15:34.283Z,86.00
2018-06-15T01:18:04.339Z,86.00
2018-06-15T01:20:34.437Z,86.00
2018-06-15T01:23:04.467Z,85.80
2018-06-15T01:25:34.501Z,85.80
2018-06-15T01:28:04.505Z,85.80
2018-06-15T01:30:34.523Z,86.00
2018-06-15T01:33:04.516Z,86.60
2018-06-15T01:38:04.289Z,87.00
2018-06-15T01:40:34.300Z,87.20
2018-06-15T01:43:04.319Z,87.30
2018-06-15T01:45:34.406Z,87.30
2018-06-15T01:48:04.423Z,87.50
2018-06-15T01:53:04.118Z,87.80
2018-06-15T01:55:34.149Z,87.50
2018-06-15T01:58:04.331Z,87.60
2018-06-15T02:00:34.365Z,88.10
2018-06-15T02:03:04.435Z,88.20
2018-06-15T02:05:34.458Z,88.40
2018-06-15T02:08:04.648Z,88.70
2018-06-15T02:10:34.628Z,88.50
2018-06-15T02:13:04.662Z,89.10
2018-06-15T02:15:34.692Z,89.50
2018-06-15T02:18:04.789Z,90.00
2018-06-15T02:20:34.963Z,89.80
2018-06-15T02:23:05.064Z,89.80
2018-06-15T02:25:35.026Z,89.90
2018-06-15T02:28:05.116Z,89.90
2018-06-15T02:30:35.137Z,89.70
2018-06-15T02:33:05.248Z,89.60
2018-06-15T02:35:35.259Z,89.40
2018-06-15T02:38:05.329Z,89.50
2018-06-15T02:40:35.305Z,89.30
2018-06-15T02:43:05.330Z,89.20
2018-06-15T02:45:35.411Z,89.20
2018-06-15T02:48:05.441Z,89.40
2018-06-15T02:50:35.527Z,90.20
2018-06-15T02:53:05.580Z,90.10
2018-06-15T02:55:35.635Z,90.20
2018-06-15T02:58:05.686Z,90.30
2018-06-15T03:00:35.707Z,90.50
2018-06-15T03:03:06.076Z,90.70
2018-06-15T03:08:05.970Z,90.60
2018-06-15T03:10:36.036Z,90.60
2018-06-15T03:13:06.312Z,90.70
2018-06-15T03:15:36.439Z,90.80
2018-06-15T03:18:06.480Z,91.00
2018-06-15T03:20:36.579Z,91.10
2018-06-15T03:23:06.607Z,91.10
2018-06-15T03:25:36.583Z,91.20
2018-06-15T03:28:06.619Z,91.30
2018-06-15T03:30:36.657Z,91.10
2018-06-15T03:33:06.735Z,91.20
2018-06-15T03:38:06.610Z,91.20
2018-06-15T03:40:36.625Z,91.30
2018-06-15T03:43:07.039Z,91.40
2018-06-15T03:45:37.917Z,91.50
2018-06-15T03:48:07.957Z,91.60
2018-06-15T03:50:38.042Z,91.80
2018-06-15T03:53:09.531Z,92.10
2018-06-15T03:55:39.632Z,92.30
2018-06-15T03:58:09.643Z,92.50
2018-06-15T04:00:39.779Z,92.70
2018-06-15T04:03:09.836Z,92.70
2018-06-15T04:05:39.913Z,92.70
2018-06-15T04:08:09.945Z,92.70
2018-06-15T04:10:39.959Z,92.70
2018-06-15T04:13:10.061Z,92.80
2018-06-15T04:15:40.307Z,92.90
2018-06-15T04:18:10.333Z,92.90
2018-06-15T04:20:40.410Z,92.90
2018-06-15T04:23:10.466Z,92.90
2018-06-15T04:25:40.569Z,92.90
2018-06-15T04:28:10.624Z,92.80
2018-06-15T04:30:40.660Z,92.80
2018-06-15T04:33:11.109Z,92.90
2018-06-15T04:35:41.523Z,92.80
2018-06-15T04:38:11.861Z,92.90
2018-06-15T04:40:41.950Z,92.90
2018-06-15T04:43:11.978Z,92.90
2018-06-15T04:45:42.062Z,92.90
2018-06-15T04:48:12.201Z,93.00
2018-06-15T04:50:42.306Z,93.20
2018-06-15T04:53:12.419Z,93.30
2018-06-15T04:55:42.496Z,93.40
2018-06-15T04:58:12.575Z,93.30
2018-06-15T05:00:42.667Z,93.30
2018-06-15T05:03:15.038Z,93.40
2018-06-15T05:05:46.066Z,93.50
2018-06-15T05:08:16.254Z,93.60
2018-06-15T05:10:46.395Z,93.50
2018-06-15T05:13:16.501Z,93.60
2018-06-15T05:15:46.663Z,93.50
2018-06-15T05:18:16.755Z,93.60
2018-06-15T05:20:46.770Z,93.80
2018-06-15T05:23:16.881Z,93.80
2018-06-15T05:25:47.100Z,93.70
2018-06-15T05:28:17.049Z,93.70
2018-06-15T05:30:47.106Z,93.50
2018-06-15T05:33:17.211Z,93.40
2018-06-15T05:35:47.247Z,93.20
2018-06-15T05:38:17.260Z,93.20
2018-06-15T05:40:47.364Z,93.40
2018-06-15T05:43:17.399Z,92.70
2018-06-15T05:45:47.426Z,92.40
2018-06-15T05:48:17.440Z,91.50
2018-06-15T05:50:47.491Z,90.90
2018-06-15T05:55:47.263Z,90.40
2018-06-15T05:58:17.314Z,90.10
2018-06-15T06:00:47.413Z,88.30
2018-06-15T06:03:20.440Z,84.60
2018-06-15T06:05:50.529Z,82.60
2018-06-15T06:08:21.501Z,84.40
2018-06-15T06:10:51.636Z,83.30
2018-06-15T06:13:21.686Z,80.40
2018-06-15T06:15:51.780Z,76.90
2018-06-15T06:18:21.791Z,76.60
2018-06-15T06:20:51.872Z,75.90
2018-06-15T06:23:22.753Z,76.80
2018-06-15T06:25:52.848Z,77.40
2018-06-15T06:28:22.883Z,76.00
2018-06-15T06:30:52.963Z,75.00
2018-06-15T06:33:23.015Z,74.10
2018-06-15T06:35:53.224Z,75.00
2018-06-15T06:38:23.268Z,75.00
2018-06-15T06:40:53.369Z,75.80
2018-06-15T06:43:23.421Z,74.80
2018-06-15T06:45:53.470Z,74.10
2018-06-15T06:48:23.544Z,74.80
2018-06-15T06:50:53.671Z,73.10
2018-06-15T06:53:23.666Z,73.60
2018-06-15T06:55:53.771Z,74.20
2018-06-15T06:58:23.853Z,76.60
2018-06-15T07:00:53.982Z,74.10
2018-06-15T07:03:24.036Z,74.60
2018-06-15T07:05:54.126Z,74.90
2018-06-15T07:08:24.278Z,74.40
2018-06-15T07:10:54.350Z,72.10
2018-06-15T07:13:24.447Z,74.00
2018-06-15T07:15:54.501Z,75.20
2018-06-15T07:18:24.498Z,72.20
2018-06-15T07:20:54.704Z,70.20
2018-06-15T07:23:24.756Z,71.90
2018-06-15T07:25:54.778Z,71.40
2018-06-15T07:28:24.800Z,70.60
2018-06-15T07:30:54.852Z,71.20
2018-06-15T07:35:54.610Z,73.20
2018-06-15T07:38:24.638Z,72.70
2018-06-15T07:40:54.723Z,69.60
2018-06-15T07:43:24.779Z,70.00
2018-06-15T07:45:54.946Z,70.90
2018-06-15T07:48:25.018Z,70.50
2018-06-15T07:50:55.107Z,68.00
2018-06-15T07:53:25.188Z,67.50
2018-06-15T07:55:55.333Z,66.00
2018-06-15T07:58:25.380Z,72.00
2018-06-15T08:00:55.683Z,67.60
2018-06-15T08:03:26.056Z,67.00
2018-06-15T08:08:25.920Z,64.00
2018-06-15T08:10:56.018Z,65.60
2018-06-15T08:13:26.072Z,66.20
2018-06-15T08:15:56.118Z,68.20
2018-06-15T08:18:26.187Z,66.90
2018-06-15T08:25:55.446Z,64.70
2018-06-15T08:28:25.445Z,63.60
2018-06-15T08:30:55.537Z,65.00
2018-06-15T08:33:25.545Z,64.70
2018-06-15T08:35:55.588Z,68.80
2018-06-15T08:38:25.605Z,66.00
2018-06-15T08:40:55.668Z,66.20
2018-06-15T08:43:25.665Z,65.30
2018-06-15T08:45:55.805Z,68.60
2018-06-15T08:48:25.784Z,64.00
2018-06-15T08:50:55.821Z,66.80
2018-06-15T08:53:25.829Z,66.20
2018-06-15T08:55:55.869Z,73.60
2018-06-15T09:00:55.576Z,67.60
2018-06-15T09:03:25.627Z,60.70
2018-06-15T09:05:55.621Z,62.80
2018-06-15T09:08:25.716Z,62.80
2018-06-15T09:10:55.703Z,63.00
2018-06-15T09:13:25.731Z,60.80
2018-06-15T09:15:55.784Z,64.00
2018-06-15T09:18:25.815Z,68.60
2018-06-15T09:20:55.829Z,68.50
2018-06-15T09:23:25.898Z,70.60
2018-06-15T09:25:55.917Z,66.10
2018-06-15T09:28:25.968Z,68.90
2018-06-15T09:30:55.959Z,68.70
2018-06-15T09:33:25.994Z,64.50
2018-06-15T09:35:56.631Z,60.60
2018-06-15T09:38:26.676Z,62.20
2018-06-15T09:40:56.659Z,61.20
2018-06-15T09:43:26.704Z,57.20
2018-06-15T09:45:56.815Z,61.30
2018-06-15T09:48:26.908Z,56.20
2018-06-15T09:50:56.879Z,57.00
2018-06-15T09:53:26.893Z,61.60
2018-06-15T09:55:57.683Z,58.90
2018-06-15T09:58:27.718Z,57.60
2018-06-15T10:01:02.727Z,58.50
2018-06-15T10:03:32.756Z,63.60
2018-06-15T10:06:03.152Z,58.60
2018-06-15T10:08:33.499Z,58.00
2018-06-15T10:11:03.525Z,59.30
2018-06-15T10:13:33.581Z,56.20
2018-06-15T10:16:03.638Z,60.10
2018-06-15T10:18:33.670Z,60.40
2018-06-15T10:21:03.667Z,61.40
2018-06-15T10:23:33.761Z,63.20
2018-06-15T10:28:33.404Z,59.30
2018-06-15T10:31:03.391Z,59.70
2018-06-15T10:33:33.407Z,60.50
2018-06-15T10:36:03.435Z,56.30
2018-06-15T10:38:33.461Z,61.00
2018-06-15T10:41:03.442Z,58.50
2018-06-15T10:43:33.462Z,62.50
2018-06-15T10:46:03.542Z,56.00
2018-06-15T10:51:03.131Z,60.20
2018-06-15T10:53:33.180Z,59.90
2018-06-15T10:56:03.193Z,57.30
2018-06-15T10:58:33.187Z,56.40
2018-06-15T11:01:03.223Z,57.50
2018-06-15T11:03:33.267Z,55.40
2018-06-15T11:06:03.334Z,56.30
2018-06-15T11:08:33.396Z,56.80
2018-06-15T11:11:03.466Z,55.90
2018-06-15T11:13:33.510Z,56.90
2018-06-15T11:16:03.501Z,57.20
2018-06-15T11:18:33.555Z,53.70
2018-06-15T11:21:03.710Z,50.90
2018-06-15T11:23:33.764Z,58.40
2018-06-15T11:26:03.834Z,59.90
2018-06-15T11:28:33.847Z,56.60
2018-06-15T11:31:03.962Z,57.70
2018-06-15T11:33:34.862Z,58.00
2018-06-15T11:36:04.855Z,56.70
2018-06-15T11:38:34.918Z,58.70
2018-06-15T11:41:05.034Z,56.30
2018-06-15T11:43:34.999Z,56.30
2018-06-15T11:46:05.072Z,56.90
2018-06-15T11:48:35.143Z,58.40
2018-06-15T11:51:05.149Z,58.70
2018-06-15T11:53:35.194Z,57.80
2018-06-15T11:56:05.411Z,56.30
2018-06-15T11:58:35.417Z,58.30
2018-06-15T12:01:05.521Z,53.70
2018-06-15T12:03:35.603Z,57.90
2018-06-15T12:06:05.604Z,60.30
2018-06-15T12:08:35.624Z,56.00
2018-06-15T12:11:05.616Z,53.30
2018-06-15T12:13:35.851Z,51.30
2018-06-15T12:16:05.884Z,53.50
2018-06-15T12:18:35.921Z,54.30
2018-06-15T12:21:05.946Z,56.70
2018-06-15T12:23:35.917Z,57.30
2018-06-15T12:26:06.149Z,59.00
2018-06-15T12:28:36.187Z,60.50
2018-06-15T12:31:06.344Z,57.00
2018-06-15T12:33:36.508Z,56.90
2018-06-15T12:36:09.057Z,57.60
2018-06-15T12:38:39.124Z,57.40
2018-06-15T12:41:09.227Z,56.40
2018-06-15T12:43:39.230Z,60.10
2018-06-15T12:48:38.990Z,55.00
2018-06-15T12:51:09.099Z,57.40
2018-06-15T12:53:39.184Z,56.10
2018-06-15T12:56:09.276Z,55.30
2018-06-15T12:58:39.428Z,55.90
2018-06-15T13:01:09.598Z,54.20
2018-06-15T13:03:39.699Z,55.20
2018-06-15T13:08:39.571Z,51.20
2018-06-15T13:11:09.868Z,53.70
2018-06-15T13:13:41.312Z,58.80
2018-06-15T13:16:11.626Z,58.70
2018-06-15T13:18:41.704Z,55.80
2018-06-15T13:21:12.285Z,57.90
2018-06-15T13:23:42.439Z,54.60
2018-06-15T13:26:12.759Z,54.90
2018-06-15T13:28:42.847Z,54.30
2018-06-15T13:31:13.090Z,55.40
2018-06-15T13:33:45.570Z,55.70
2018-06-15T13:36:16.690Z,51.40
2018-06-15T13:38:51.625Z,53.30
2018-06-15T13:41:22.075Z,57.10
2018-06-15T13:43:52.553Z,53.00
2018-06-15T13:46:23.128Z,54.70
2018-06-15T13:48:53.731Z,57.60
2018-06-15T13:51:24.517Z,55.60
2018-06-15T13:53:54.935Z,53.70
2018-06-15T13:56:25.313Z,52.90
2018-06-15T13:58:55.721Z,53.80
2018-06-15T14:01:26.424Z,48.40
2018-06-15T14:03:56.931Z,49.50
2018-06-15T14:06:28.224Z,51.20
2018-06-15T14:08:59.054Z,50.60
2018-06-15T14:11:29.974Z,53.40
2018-06-15T14:14:00.627Z,51.50
2018-06-15T14:19:01.085Z,51.50
2018-06-15T14:21:31.567Z,49.40
2018-06-15T14:24:02.628Z,51.00
2018-06-15T14:26:34.734Z,52.90
2018-06-15T14:29:12.748Z,51.00
2018-06-15T14:31:44.031Z,52.60
2018-06-15T14:34:15.109Z,52.20
2018-06-15T14:36:45.757Z,51.20
2018-06-15T14:39:16.189Z,51.20
2018-06-15T14:41:46.313Z,51.90
2018-06-15T14:44:16.322Z,52.60
2018-06-15T14:46:46.335Z,51.40
2018-06-15T14:49:16.371Z,52.40
2018-06-15T14:51:46.712Z,51.80
2018-06-15T14:54:16.692Z,52.70
2018-06-15T14:56:46.734Z,53.90
2018-06-15T14:59:16.763Z,52.90
2018-06-15T15:01:46.833Z,51.80
2018-06-15T15:04:16.829Z,54.10
2018-06-15T15:06:46.963Z,53.90
2018-06-15T15:09:16.929Z,52.40
2018-06-15T15:11:46.922Z,54.20
2018-06-15T15:14:16.920Z,53.80
2018-06-15T15:16:46.974Z,54.50
2018-06-15T15:19:17.061Z,56.00
2018-06-15T15:21:47.064Z,53.20
2018-06-15T15:24:17.083Z,53.40
2018-06-15T15:26:47.286Z,55.00
2018-06-15T15:29:17.316Z,54.20
2018-06-15T15:31:47.345Z,57.20
2018-06-15T15:34:17.869Z,52.20
2018-06-15T15:39:17.578Z,51.70
2018-06-15T15:41:47.600Z,49.00
2018-06-15T15:44:17.870Z,49.60
2018-06-15T15:46:47.884Z,53.30
2018-06-15T15:49:17.947Z,49.70
2018-06-15T15:51:48.187Z,49.10
2018-06-15T15:54:18.269Z,47.60
2018-06-15T15:56:48.585Z,48.60
2018-06-15T15:59:18.688Z,47.40
2018-06-15T16:01:48.850Z,49.90
2018-06-15T16:04:18.857Z,50.40
2018-06-15T16:06:48.878Z,49.80
2018-06-15T16:09:19.034Z,51.70
2018-06-15T16:11:49.172Z,52.00
2018-06-15T16:14:19.198Z,51.10
2018-06-15T16:16:49.225Z,51.80
2018-06-15T16:19:19.328Z,51.50
2018-06-15T16:21:49.302Z,52.20
2018-06-15T16:24:19.312Z,50.70
2018-06-15T16:26:49.322Z,51.60
2018-06-15T16:29:19.382Z,50.80
2018-06-15T16:31:49.426Z,50.90
2018-06-15T16:34:20.162Z,52.10
2018-06-15T16:36:51.081Z,52.60
2018-06-15T16:39:21.128Z,53.00
2018-06-15T16:41:51.169Z,53.20
2018-06-15T16:44:21.216Z,52.90
2018-06-15T16:46:51.278Z,53.10
2018-06-15T16:49:21.291Z,52.50
2018-06-15T16:51:51.271Z,53.00
2018-06-15T16:54:21.276Z,53.40
2018-06-15T16:56:51.238Z,53.60
2018-06-15T16:59:21.232Z,54.20
2018-06-15T17:01:51.233Z,55.20
2018-06-15T17:04:21.225Z,55.30
2018-06-15T17:06:51.218Z,53.80
2018-06-15T17:09:21.230Z,53.10
2018-06-15T17:11:51.299Z,53.40
2018-06-15T17:14:21.378Z,53.30
2018-06-15T17:16:51.404Z,53.50
2018-06-15T17:19:21.449Z,53.90
2018-06-15T17:21:51.493Z,51.60
2018-06-15T17:24:21.504Z,52.40
2018-06-15T17:26:51.625Z,52.60
2018-06-15T17:29:21.672Z,51.20
2018-06-15T17:31:51.627Z,52.20
2018-06-15T17:34:21.685Z,52.00
2018-06-15T17:36:51.703Z,52.70
2018-06-15T17:39:21.730Z,52.80
2018-06-15T17:41:51.725Z,52.80
2018-06-15T17:44:21.744Z,52.20
2018-06-15T17:46:51.726Z,53.00
2018-06-15T17:49:21.739Z,52.70
2018-06-15T17:51:51.769Z,53.50
2018-06-15T17:54:21.798Z,54.40
2018-06-15T17:56:51.828Z,54.50
2018-06-15T17:59:21.867Z,52.20
2018-06-15T18:01:51.886Z,51.30
2018-06-15T18:04:21.912Z,51.70
2018-06-15T18:06:51.906Z,51.60
2018-06-15T18:09:21.933Z,52.50
2018-06-15T18:11:52.168Z,53.30
2018-06-15T18:14:22.221Z,53.30
2018-06-15T18:16:52.248Z,53.40
2018-06-15T18:19:22.268Z,54.20
2018-06-15T18:21:52.555Z,54.40
2018-06-15T18:24:22.796Z,55.30
2018-06-15T18:26:52.775Z,55.00
2018-06-15T18:31:52.388Z,56.00
2018-06-15T18:34:22.401Z,56.80
2018-06-15T18:36:52.382Z,56.00
2018-06-15T18:39:22.394Z,55.60
2018-06-15T18:41:52.423Z,56.60
2018-06-15T18:44:22.410Z,58.20
2018-06-15T18:46:52.681Z,59.20
2018-06-15T18:49:22.672Z,61.50
2018-06-15T18:51:52.719Z,61.00
2018-06-15T18:54:22.777Z,62.40
2018-06-15T18:56:52.796Z,62.20
2018-06-15T18:59:22.846Z,63.60
2018-06-15T19:01:52.905Z,64.30
2018-06-15T19:04:23.003Z,64.60
2018-06-15T19:06:53.060Z,66.40
2018-06-15T19:09:23.051Z,66.90
2018-06-15T19:11:53.075Z,67.00
2018-06-15T19:14:23.158Z,67.60
2018-06-15T19:16:53.203Z,68.70
2018-06-15T19:19:23.241Z,68.60
2018-06-15T19:21:53.285Z,69.70
2018-06-15T19:24:23.300Z,70.60
2018-06-15T19:26:53.333Z,71.10
2018-06-15T19:29:23.329Z,71.50
2018-06-15T19:31:53.391Z,71.80
2018-06-15T19:34:23.428Z,71.80
2018-06-15T19:36:53.436Z,71.60
2018-06-15T19:39:23.436Z,71.70
2018-06-15T19:41:53.409Z,72.10
2018-06-15T19:46:52.999Z,72.80
2018-06-15T19:49:23.031Z,73.30
2018-06-15T19:51:53.060Z,74.10
2018-06-15T19:54:23.119Z,74.70
2018-06-15T19:56:53.119Z,74.90
2018-06-15T20:01:52.721Z,75.30
2018-06-15T20:04:22.938Z,75.30
2018-06-15T20:06:52.989Z,74.90
2018-06-15T20:09:23.093Z,75.00
2018-06-15T20:11:53.156Z,75.90
2018-06-15T20:14:23.388Z,75.50
2018-06-15T20:16:53.404Z,76.20
2018-06-15T20:19:23.507Z,76.40
2018-06-15T20:24:23.203Z,76.40
2018-06-15T20:26:54.220Z,76.70
2018-06-15T20:29:24.268Z,76.60
2018-06-15T20:31:54.250Z,77.20
2018-06-15T20:34:24.300Z,77.80
2018-06-15T20:36:54.707Z,78.10
2018-06-15T20:39:24.776Z,78.40
2018-06-15T20:41:54.859Z,78.80
2018-06-15T20:44:24.927Z,78.70
2018-06-15T20:46:54.959Z,79.40
2018-06-15T20:49:24.963Z,80.20
2018-06-15T20:51:54.934Z,79.60
2018-06-15T20:54:24.971Z,80.20
2018-06-15T20:56:55.056Z,80.30
2018-06-15T20:59:25.099Z,80.60
2018-06-15T21:01:55.174Z,80.70
2018-06-15T21:04:25.175Z,81.10
2018-06-15T21:06:56.021Z,81.20
2018-06-15T21:09:26.249Z,81.60
2018-06-15T21:11:56.264Z,81.50
2018-06-15T21:14:26.297Z,82.00
2018-06-15T21:16:56.345Z,82.40
2018-06-15T21:19:26.355Z,82.50
2018-06-15T21:21:56.371Z,82.70
2018-06-15T21:24:26.415Z,82.90
2018-06-15T21:26:56.464Z,83.20
2018-06-15T21:29:26.512Z,83.40
2018-06-15T21:31:56.543Z,84.00
2018-06-15T21:34:26.536Z,84.30
2018-06-15T21:36:56.775Z,84.60
2018-06-15T21:39:26.787Z,85.00
2018-06-15T21:41:56.931Z,85.20
2018-06-15T21:44:26.961Z,85.60
2018-06-15T21:46:56.968Z,85.90
2018-06-15T21:49:27.048Z,86.00
2018-06-15T21:51:58.297Z,86.10
2018-06-15T21:54:28.367Z,86.30
2018-06-15T21:56:58.457Z,86.50
2018-06-15T21:59:29.228Z,87.30
2018-06-15T22:01:59.294Z,87.90
2018-06-15T22:04:29.343Z,88.10
2018-06-15T22:06:59.417Z,88.10
2018-06-15T22:09:29.489Z,88.20
2018-06-15T22:11:59.558Z,88.20
2018-06-15T22:16:59.302Z,88.80
2018-06-15T22:19:29.332Z,89.00
2018-06-15T22:21:59.416Z,89.00
2018-06-15T22:24:29.513Z,89.30
2018-06-15T22:26:59.649Z,89.40
2018-06-15T22:29:29.680Z,89.60
2018-06-15T22:31:59.792Z,89.70
2018-06-15T22:34:29.769Z,90.00
2018-06-15T22:36:59.820Z,90.00
2018-06-15T22:39:29.817Z,90.10
2018-06-15T22:41:59.972Z,90.20
2018-06-15T22:44:30.060Z,90.20
2018-06-15T22:47:00.094Z,90.20
2018-06-15T22:49:30.143Z,90.20
2018-06-15T22:52:00.159Z,90.30
2018-06-15T22:54:30.245Z,90.50
2018-06-15T22:57:00.319Z,90.60
2018-06-15T22:59:30.319Z,90.70
2018-06-15T23:02:00.401Z,90.80
2018-06-15T23:04:30.502Z,90.80
2018-06-15T23:07:00.527Z,90.90
2018-06-15T23:09:30.559Z,90.90
2018-06-15T23:12:00.606Z,90.90
2018-06-15T23:14:30.623Z,91.00
2018-06-15T23:17:00.715Z,91.00
2018-06-15T23:19:30.712Z,91.00
2018-06-15T23:22:00.751Z,91.10
2018-06-15T23:27:00.392Z,91.30
2018-06-15T23:29:30.388Z,91.30
2018-06-15T23:32:00.478Z,91.30
2018-06-15T23:34:30.501Z,91.30
2018-06-15T23:37:00.597Z,91.30
2018-06-15T23:39:30.677Z,91.40
2018-06-15T23:42:00.722Z,91.40
2018-06-15T23:44:30.691Z,91.50
2018-06-15T23:47:00.784Z,91.40
2018-06-15T23:49:30.824Z,91.50
2018-06-15T23:52:00.887Z,91.40
2018-06-15T23:57:00.578Z,91.40
2018-06-15T23:59:30.612Z,91.50
